createdAt,value
2023-02-06T00:00:51.511Z,1.40
2023-02-06T00:03:18.241Z,0.87
2023-02-06T00:05:54.108Z,0.82
2023-02-06T00:08:20.571Z,1.00
2023-02-06T00:10:47.093Z,1.00
2023-02-06T00:13:13.596Z,1.48
2023-02-06T00:15:40.227Z,1.00
2023-02-06T00:18:06.719Z,0.95
2023-02-06T00:20:33.303Z,1.27
2023-02-06T00:22:59.751Z,0.60
2023-02-06T00:25:26.225Z,1.35
2023-02-06T00:27:52.707Z,1.27
2023-02-06T00:30:19.272Z,0.95
2023-02-06T00:32:45.874Z,1.23
2023-02-06T00:35:12.748Z,0.85
2023-02-06T00:37:39.248Z,1.00
2023-02-06T00:40:06.240Z,0.77
2023-02-06T00:42:32.732Z,1.00
2023-02-06T00:44:59.132Z,1.42
2023-02-06T00:47:25.700Z,0.77
2023-02-06T00:49:52.171Z,1.20
2023-02-06T00:52:18.658Z,0.93
2023-02-06T00:54:45.118Z,1.20
2023-02-06T00:57:11.596Z,1.38
2023-02-06T00:59:38.128Z,1.10
2023-02-06T01:02:04.606Z,1.85
2023-02-06T01:04:31.380Z,1.20
2023-02-06T01:06:57.983Z,1.35
2023-02-06T01:09:24.560Z,2.90
2023-02-06T01:11:51.096Z,1.10
2023-02-06T01:14:17.899Z,1.63
2023-02-06T01:16:44.414Z,0.83
2023-02-06T01:19:10.975Z,1.48
2023-02-06T01:21:37.454Z,1.13
2023-02-06T01:24:04.078Z,1.15
2023-02-06T01:26:30.591Z,1.35
2023-02-06T01:28:57.344Z,1.53
2023-02-06T01:31:29.191Z,0.75
2023-02-06T01:33:58.531Z,0.98
2023-02-06T01:36:25.973Z,1.20
2023-02-06T01:38:53.036Z,0.82
2023-02-06T01:41:22.847Z,0.90
2023-02-06T01:44:08.118Z,0.68
2023-02-06T01:46:34.694Z,1.27
2023-02-06T01:49:01.991Z,1.52
2023-02-06T01:51:30.528Z,0.35
2023-02-06T01:54:06.640Z,1.07
2023-02-06T01:56:53.623Z,1.45
2023-02-06T01:59:21.021Z,0.77
2023-02-06T02:01:47.601Z,1.35
2023-02-06T02:04:18.220Z,1.48
2023-02-06T02:06:52.371Z,1.63
2023-02-06T02:09:19.787Z,0.95
2023-02-06T02:11:46.336Z,0.90
2023-02-06T02:14:15.424Z,1.55
2023-02-06T02:17:05.358Z,1.45
2023-02-06T02:19:50.611Z,1.10
2023-02-06T02:22:23.364Z,1.17
2023-02-06T02:25:08.998Z,1.00
2023-02-06T02:27:54.263Z,1.35
2023-02-06T02:30:51.834Z,0.85
2023-02-06T02:33:33.525Z,0.40
2023-02-06T02:36:12.496Z,1.17
2023-02-06T02:39:03.233Z,0.80
2023-02-06T02:41:49.962Z,0.63
2023-02-06T02:44:35.744Z,1.05
2023-02-06T02:47:07.114Z,0.67
2023-02-06T02:49:36.664Z,0.50
2023-02-06T02:52:04.220Z,1.17
2023-02-06T02:54:31.139Z,1.10
2023-02-06T02:57:06.030Z,0.90
2023-02-06T02:59:36.723Z,0.50
2023-02-06T03:02:07.948Z,0.50
2023-02-06T03:04:40.747Z,0.63
2023-02-06T03:07:35.076Z,0.80
2023-02-06T03:10:22.948Z,0.82
2023-02-06T03:12:58.333Z,0.80
2023-02-06T03:15:35.126Z,0.40
2023-02-06T03:18:10.461Z,0.50
2023-02-06T03:20:41.271Z,0.30
2023-02-06T03:23:08.440Z,0.60
2023-02-06T03:25:41.637Z,0.40
2023-02-06T03:28:17.528Z,0.32
2023-02-06T03:30:46.452Z,0.40
2023-02-06T03:33:17.507Z,0.52
2023-02-06T03:35:44.186Z,0.22
2023-02-06T03:38:10.983Z,0.47
2023-02-06T03:40:39.580Z,0.40
2023-02-06T03:43:07.845Z,0.55
2023-02-06T03:45:39.528Z,0.47
2023-02-06T03:48:11.625Z,0.30
2023-02-06T03:50:41.937Z,1.00
2023-02-06T03:53:11.736Z,0.70
2023-02-06T03:55:41.088Z,0.50
2023-02-06T03:58:13.414Z,0.50
2023-02-06T04:00:43.120Z,0.57
2023-02-06T04:03:11.164Z,0.33
2023-02-06T04:05:38.190Z,0.47
2023-02-06T04:08:05.395Z,0.40
2023-02-06T04:10:32.086Z,0.50
2023-02-06T04:12:58.599Z,0.50
2023-02-06T04:15:25.090Z,0.30
2023-02-06T04:17:59.993Z,0.22
2023-02-06T04:20:28.103Z,0.35
2023-02-06T04:22:54.639Z,0.40
2023-02-06T04:25:21.094Z,0.50
2023-02-06T04:27:47.641Z,0.63
2023-02-06T04:30:15.641Z,0.57
2023-02-06T04:32:42.238Z,0.95
2023-02-06T04:35:08.981Z,0.30
2023-02-06T04:37:36.052Z,0.50
2023-02-06T04:40:02.539Z,0.30
2023-02-06T04:42:29.082Z,0.15
2023-02-06T04:44:55.734Z,0.80
2023-02-06T04:47:22.248Z,0.77
2023-02-06T04:49:48.712Z,0.43
2023-02-06T04:52:15.398Z,0.53
2023-02-06T04:54:41.840Z,0.68
2023-02-06T04:57:08.411Z,0.68
2023-02-06T04:59:34.917Z,0.50
2023-02-06T05:02:01.865Z,0.35
2023-02-06T05:04:28.444Z,0.50
2023-02-06T05:06:54.941Z,0.90
2023-02-06T05:09:21.511Z,0.73
2023-02-06T05:11:48.015Z,0.45
2023-02-06T05:14:14.516Z,0.70
2023-02-06T05:16:40.976Z,0.70
2023-02-06T05:19:07.538Z,0.70
2023-02-06T05:21:34.100Z,0.40
2023-02-06T05:24:00.589Z,0.52
2023-02-06T05:26:27.212Z,0.40
2023-02-06T05:28:53.668Z,0.50
2023-02-06T05:31:20.566Z,0.60
2023-02-06T05:33:52.538Z,0.85
2023-02-06T05:36:20.427Z,0.50
2023-02-06T05:38:47.925Z,0.55
2023-02-06T05:41:15.511Z,0.37
2023-02-06T05:43:42.064Z,1.75
2023-02-06T05:46:08.963Z,0.45
2023-02-06T05:48:35.573Z,0.55
2023-02-06T05:51:02.351Z,1.15
2023-02-06T05:53:28.875Z,0.27
2023-02-06T05:55:56.037Z,0.57
2023-02-06T05:58:22.655Z,0.50
2023-02-06T06:00:49.113Z,0.57
2023-02-06T06:03:15.618Z,0.75
2023-02-06T06:05:42.201Z,0.70
2023-02-06T06:08:08.693Z,0.47
2023-02-06T06:10:35.375Z,1.00
2023-02-06T06:13:01.874Z,0.52
2023-02-06T06:15:28.508Z,1.00
2023-02-06T06:17:55.042Z,0.23
2023-02-06T06:20:21.697Z,0.30
2023-02-06T06:22:48.258Z,0.38
2023-02-06T06:25:14.751Z,0.45
2023-02-06T06:27:41.211Z,0.75
2023-02-06T06:30:08.560Z,0.93
2023-02-06T06:32:35.116Z,0.40
2023-02-06T06:35:01.756Z,0.68
2023-02-06T06:37:28.282Z,0.60
2023-02-06T06:39:54.768Z,0.38
2023-02-06T06:42:21.234Z,0.50
2023-02-06T06:44:47.788Z,0.30
2023-02-06T06:47:14.287Z,0.50
2023-02-06T06:49:40.732Z,0.77
2023-02-06T06:52:19.553Z,0.63
2023-02-06T06:54:52.353Z,0.40
2023-02-06T06:57:19.298Z,0.50
2023-02-06T06:59:45.835Z,0.50
2023-02-06T07:02:12.352Z,0.30
2023-02-06T07:04:38.894Z,0.50
2023-02-06T07:07:05.512Z,0.43
2023-02-06T07:09:32.057Z,0.30
2023-02-06T07:11:58.635Z,0.40
2023-02-06T07:14:25.272Z,0.35
2023-02-06T07:16:51.800Z,0.30
2023-02-06T07:19:18.292Z,0.30
2023-02-06T07:21:44.771Z,0.45
2023-02-06T07:24:11.283Z,0.65
2023-02-06T07:26:37.841Z,0.40
2023-02-06T07:29:04.396Z,0.60
2023-02-06T07:31:31.074Z,0.50
2023-02-06T07:33:57.694Z,1.10
2023-02-06T07:36:24.189Z,0.50
2023-02-06T07:38:50.660Z,0.90
2023-02-06T07:41:18.303Z,0.50
2023-02-06T07:43:44.785Z,1.07
2023-02-06T07:46:11.508Z,0.98
2023-02-06T07:48:38.030Z,0.90
2023-02-06T07:51:06.977Z,1.30
2023-02-06T07:53:34.075Z,0.98
2023-02-06T07:56:00.601Z,1.43
2023-02-06T07:58:27.620Z,1.02
2023-02-06T08:00:54.967Z,0.93
2023-02-06T08:03:21.598Z,0.70
2023-02-06T08:05:48.066Z,0.80
2023-02-06T08:08:14.520Z,0.53
2023-02-06T08:10:41.007Z,0.52
2023-02-06T08:13:08.000Z,0.20
2023-02-06T08:15:35.057Z,0.77
2023-02-06T08:18:01.884Z,1.00
2023-02-06T08:20:28.432Z,0.50
2023-02-06T08:22:55.085Z,0.70
2023-02-06T08:25:21.743Z,0.50
2023-02-06T08:27:52.433Z,0.70
2023-02-06T08:30:19.096Z,1.00
2023-02-06T08:32:45.599Z,0.80
2023-02-06T08:35:12.245Z,0.57
2023-02-06T08:37:38.946Z,0.50
2023-02-06T08:40:05.950Z,0.68
2023-02-06T08:42:32.459Z,0.60
2023-02-06T08:44:58.999Z,0.97
2023-02-06T08:47:25.536Z,0.73
2023-02-06T08:49:52.047Z,0.70
2023-02-06T08:52:18.953Z,0.47
2023-02-06T08:54:45.441Z,0.70
2023-02-06T08:57:12.999Z,0.50
2023-02-06T08:59:39.536Z,0.70
2023-02-06T09:02:08.259Z,0.73
2023-02-06T09:04:37.709Z,0.65
2023-02-06T09:07:04.729Z,0.40
2023-02-06T09:09:31.240Z,1.10
2023-02-06T09:12:02.200Z,0.70
2023-02-06T09:14:29.422Z,1.30
2023-02-06T09:16:58.123Z,1.10
2023-02-06T09:19:26.098Z,0.93
2023-02-06T09:21:52.943Z,0.93
2023-02-06T09:24:19.949Z,1.60
2023-02-06T09:26:59.006Z,1.17
2023-02-06T09:29:28.897Z,1.38
2023-02-06T09:31:57.344Z,1.90
2023-02-06T09:34:25.922Z,1.47
2023-02-06T09:36:54.761Z,1.42
2023-02-06T09:39:21.608Z,1.45
2023-02-06T09:41:52.325Z,1.92
2023-02-06T09:44:27.424Z,1.77
2023-02-06T09:47:15.864Z,1.70
2023-02-06T09:49:52.955Z,2.08
2023-02-06T09:53:02.584Z,1.73
2023-02-06T09:55:35.232Z,2.00
2023-02-06T09:58:20.653Z,1.38
2023-02-06T10:01:26.092Z,1.40
2023-02-06T10:04:01.838Z,1.77
2023-02-06T10:06:35.832Z,1.17
2023-02-06T10:09:27.128Z,1.23
2023-02-06T10:12:01.801Z,1.58
2023-02-06T10:14:46.304Z,1.97
2023-02-06T10:17:25.857Z,1.60
2023-02-06T10:20:01.683Z,2.20
2023-02-06T10:22:38.983Z,1.50
2023-02-06T10:25:27.313Z,1.80
2023-02-06T10:27:59.899Z,1.17
2023-02-06T10:30:59.196Z,1.40
2023-02-06T10:33:43.176Z,1.60
2023-02-06T10:36:39.531Z,2.47
2023-02-06T10:39:18.108Z,1.58
2023-02-06T10:41:55.330Z,1.77
2023-02-06T10:44:24.585Z,1.45
2023-02-06T10:46:54.173Z,1.40
2023-02-06T10:49:30.382Z,1.23
2023-02-06T10:52:01.138Z,1.80
2023-02-06T10:54:35.248Z,1.40
2023-02-06T10:57:02.253Z,1.63
2023-02-06T10:59:33.953Z,2.10
2023-02-06T11:02:23.916Z,1.45
2023-02-06T11:04:58.756Z,1.40
2023-02-06T11:07:47.456Z,1.20
2023-02-06T11:10:17.314Z,1.38
2023-02-06T11:13:12.628Z,1.55
2023-02-06T11:15:46.232Z,1.35
2023-02-06T11:18:17.806Z,1.65
2023-02-06T11:20:46.420Z,1.40
2023-02-06T11:23:18.073Z,1.02
2023-02-06T11:25:46.220Z,1.02
2023-02-06T11:28:16.082Z,1.90
2023-02-06T11:30:55.250Z,1.40
2023-02-06T11:33:27.032Z,1.00
2023-02-06T11:35:59.820Z,0.68
2023-02-06T11:38:29.534Z,1.02
2023-02-06T11:40:56.056Z,0.95
2023-02-06T11:43:26.060Z,0.77
2023-02-06T11:46:08.467Z,0.90
2023-02-06T11:48:47.314Z,0.77
2023-02-06T11:51:15.196Z,0.60
2023-02-06T11:54:02.255Z,0.93
2023-02-06T11:56:30.822Z,0.93
2023-02-06T11:59:14.630Z,0.70
2023-02-06T12:01:44.737Z,1.00
2023-02-06T12:04:34.041Z,1.20
2023-02-06T12:07:30.386Z,0.77
2023-02-06T12:09:57.249Z,1.10
2023-02-06T12:12:29.810Z,1.30
2023-02-06T12:15:29.538Z,0.75
2023-02-06T12:17:56.665Z,0.50
2023-02-06T12:20:27.961Z,0.85
2023-02-06T12:22:59.044Z,0.88
2023-02-06T12:25:38.293Z,0.57
2023-02-06T12:28:20.630Z,0.52
2023-02-06T12:31:04.767Z,1.00
2023-02-06T12:33:40.499Z,0.75
2023-02-06T12:36:17.357Z,0.60
2023-02-06T12:38:47.011Z,0.33
2023-02-06T12:41:32.051Z,0.80
2023-02-06T12:44:05.265Z,0.47
2023-02-06T12:46:32.163Z,0.73
2023-02-06T12:49:22.545Z,0.82
2023-02-06T12:51:55.263Z,0.93
2023-02-06T12:54:29.823Z,0.60
2023-02-06T12:57:03.657Z,0.50
2023-02-06T13:00:07.552Z,0.55
2023-02-06T13:02:46.215Z,0.40
2023-02-06T13:05:24.906Z,0.70
2023-02-06T13:07:54.225Z,0.95
2023-02-06T13:10:25.873Z,0.50
2023-02-06T13:12:58.516Z,0.60
2023-02-06T13:15:27.564Z,0.55
2023-02-06T13:17:55.872Z,0.77
2023-02-06T13:20:24.830Z,1.40
2023-02-06T13:23:14.599Z,0.90
2023-02-06T13:25:41.100Z,0.57
2023-02-06T13:28:22.777Z,1.00
2023-02-06T13:31:10.600Z,0.93
2023-02-06T13:33:43.793Z,0.70
2023-02-06T13:36:18.145Z,0.65
2023-02-06T13:38:44.764Z,0.65
2023-02-06T13:41:28.965Z,0.43
2023-02-06T13:44:06.582Z,1.00
2023-02-06T13:46:58.622Z,0.77
2023-02-06T13:49:43.360Z,0.68
2023-02-06T13:52:30.870Z,0.77
2023-02-06T13:55:20.931Z,0.82
2023-02-06T13:58:06.634Z,0.70
2023-02-06T14:00:39.467Z,0.63
2023-02-06T14:03:13.393Z,0.60
2023-02-06T14:05:45.573Z,0.38
2023-02-06T14:08:46.791Z,0.55
2023-02-06T14:11:34.617Z,0.40
2023-02-06T14:14:31.788Z,0.90
2023-02-06T14:17:41.447Z,0.60
2023-02-06T14:20:17.271Z,1.15
2023-02-06T14:22:51.011Z,0.70
2023-02-06T14:25:36.549Z,0.90
2023-02-06T14:28:19.228Z,0.52
2023-02-06T14:31:04.886Z,0.40
2023-02-06T14:33:34.476Z,1.13
2023-02-06T14:36:15.834Z,1.00
2023-02-06T14:38:45.277Z,0.50
2023-02-06T14:41:12.175Z,0.95
2023-02-06T14:43:43.045Z,0.88
2023-02-06T14:46:15.798Z,0.60
2023-02-06T14:48:49.736Z,0.80
2023-02-06T14:51:31.555Z,0.57
2023-02-06T14:54:02.190Z,0.47
2023-02-06T14:56:32.355Z,0.60
2023-02-06T14:59:14.106Z,0.50
2023-02-06T15:01:42.377Z,0.70
2023-02-06T15:04:22.320Z,0.53
2023-02-06T15:06:57.798Z,0.70
2023-02-06T15:09:34.416Z,0.47
2023-02-06T15:12:06.254Z,0.50
2023-02-06T15:14:35.330Z,0.70
2023-02-06T15:17:03.501Z,1.27
2023-02-06T15:19:32.618Z,1.08
2023-02-06T15:22:19.279Z,0.40
2023-02-06T15:24:53.360Z,0.70
2023-02-06T15:27:37.444Z,0.75
2023-02-06T15:30:22.000Z,1.30
2023-02-06T15:32:51.518Z,0.52
2023-02-06T15:35:33.245Z,0.40
2023-02-06T15:38:10.303Z,0.85
2023-02-06T15:40:39.266Z,0.75
2023-02-06T15:43:06.222Z,0.87
2023-02-06T15:45:36.255Z,0.90
2023-02-06T15:48:25.820Z,0.60
2023-02-06T15:51:15.427Z,0.60
2023-02-06T15:53:43.793Z,1.10
2023-02-06T15:56:32.115Z,1.20
2023-02-06T15:59:02.721Z,0.82
2023-02-06T16:01:31.939Z,1.15
2023-02-06T16:04:06.013Z,1.20
2023-02-06T16:06:32.570Z,1.02
2023-02-06T16:09:02.798Z,0.60
2023-02-06T16:11:50.639Z,0.70
2023-02-06T16:14:39.634Z,1.27
2023-02-06T16:17:15.389Z,1.40
2023-02-06T16:19:56.170Z,0.40
2023-02-06T16:22:26.876Z,1.10
2023-02-06T16:25:11.576Z,0.88
2023-02-06T16:27:44.060Z,0.57
2023-02-06T16:30:49.157Z,0.50
2023-02-06T16:33:32.048Z,0.70
2023-02-06T16:35:58.979Z,0.60
2023-02-06T16:38:25.543Z,0.55
2023-02-06T16:40:52.581Z,0.70
2023-02-06T16:43:20.114Z,0.52
2023-02-06T16:45:49.279Z,1.48
2023-02-06T16:48:17.689Z,1.63
2023-02-06T16:50:45.293Z,0.75
2023-02-06T16:53:24.933Z,0.90
2023-02-06T16:55:51.682Z,1.10
2023-02-06T16:58:21.627Z,0.75
2023-02-06T17:00:48.939Z,0.77
2023-02-06T17:03:17.628Z,0.80
2023-02-06T17:05:50.226Z,0.98
2023-02-06T17:08:18.769Z,1.17
2023-02-06T17:10:46.816Z,1.02
2023-02-06T17:13:18.543Z,1.30
2023-02-06T17:15:47.146Z,1.13
2023-02-06T17:18:16.619Z,1.38
2023-02-06T17:20:46.014Z,1.02
2023-02-06T17:23:12.791Z,1.13
2023-02-06T17:25:40.346Z,1.20
2023-02-06T17:28:09.146Z,0.90
2023-02-06T17:30:37.985Z,0.80
2023-02-06T17:33:06.449Z,0.63
2023-02-06T17:35:36.669Z,1.02
2023-02-06T17:38:08.072Z,1.20
2023-02-06T17:40:36.670Z,2.28
2023-02-06T17:43:04.702Z,2.00
2023-02-06T17:45:31.857Z,2.53
2023-02-06T17:47:58.561Z,2.00
2023-02-06T17:50:27.069Z,2.23
2023-02-06T17:52:55.617Z,1.85
2023-02-06T17:55:23.782Z,1.73
2023-02-06T17:57:50.585Z,1.40
2023-02-06T18:00:19.463Z,2.90
2023-02-06T18:02:46.476Z,4.03
2023-02-06T18:05:13.031Z,4.28
2023-02-06T18:07:40.547Z,4.03
2023-02-06T18:10:09.017Z,4.88
2023-02-06T18:12:35.556Z,4.88
2023-02-06T18:15:02.196Z,5.63
2023-02-06T18:17:28.827Z,5.32
2023-02-06T18:19:55.335Z,4.78
2023-02-06T18:22:22.205Z,2.78
2023-02-06T18:24:50.128Z,2.90
2023-02-06T18:27:17.804Z,3.53
2023-02-06T18:29:50.636Z,2.65
2023-02-06T18:32:18.567Z,2.00
2023-02-06T18:34:45.596Z,3.53
2023-02-06T18:37:12.206Z,4.72
2023-02-06T18:39:39.610Z,6.60
2023-02-06T18:42:24.615Z,5.25
2023-02-06T18:44:51.228Z,2.38
2023-02-06T18:47:18.940Z,2.08
2023-02-06T18:49:45.932Z,1.80
2023-02-06T18:52:12.568Z,2.60
2023-02-06T18:54:39.626Z,2.25
2023-02-06T18:57:06.513Z,1.17
2023-02-06T18:59:33.109Z,2.50
2023-02-06T19:01:59.683Z,3.30
2023-02-06T19:04:26.179Z,2.80
2023-02-06T19:06:52.963Z,2.35
2023-02-06T19:09:20.101Z,1.38
2023-02-06T19:11:48.288Z,1.25
2023-02-06T19:14:16.951Z,1.23
2023-02-06T19:16:47.387Z,1.33
2023-02-06T19:19:14.491Z,1.58
2023-02-06T19:21:43.608Z,2.00
2023-02-06T19:24:15.318Z,2.22
2023-02-06T19:26:42.791Z,0.90
2023-02-06T19:29:11.241Z,1.20
2023-02-06T19:31:40.492Z,1.35
2023-02-06T19:34:07.282Z,1.10
2023-02-06T19:36:33.880Z,1.60
2023-02-06T19:39:03.974Z,1.25
2023-02-06T19:41:32.760Z,1.93
2023-02-06T19:44:03.393Z,1.75
2023-02-06T19:46:30.082Z,1.88
2023-02-06T19:48:56.826Z,1.83
2023-02-06T19:51:29.639Z,1.90
2023-02-06T19:53:58.034Z,2.13
2023-02-06T19:56:26.135Z,2.00
2023-02-06T19:58:59.745Z,3.22
2023-02-06T20:01:29.556Z,5.32
2023-02-06T20:04:01.086Z,6.38
2023-02-06T20:06:29.506Z,5.47
2023-02-06T20:08:56.820Z,7.80
2023-02-06T20:11:23.748Z,8.77
2023-02-06T20:13:55.631Z,9.38
2023-02-06T20:16:29.093Z,9.50
2023-02-06T20:18:56.491Z,5.90
2023-02-06T20:21:29.495Z,6.22
2023-02-06T20:23:58.239Z,8.57
2023-02-06T20:26:27.946Z,8.00
2023-02-06T20:28:54.822Z,5.38
2023-02-06T20:31:22.290Z,4.03
2023-02-06T20:33:50.785Z,2.75
2023-02-06T20:36:20.228Z,2.58
2023-02-06T20:38:56.179Z,3.15
2023-02-06T20:41:26.258Z,7.28
2023-02-06T20:43:53.237Z,4.80
2023-02-06T20:46:21.459Z,2.88
2023-02-06T20:48:56.212Z,2.35
2023-02-06T20:51:23.089Z,1.77
2023-02-06T20:53:50.306Z,1.75
2023-02-06T20:56:17.493Z,1.70
2023-02-06T20:58:44.332Z,2.08
2023-02-06T21:01:14.941Z,2.88
2023-02-06T21:03:41.889Z,3.15
2023-02-06T21:06:08.789Z,2.95
2023-02-06T21:08:35.383Z,4.80
2023-02-06T21:11:02.256Z,4.13
2023-02-06T21:13:29.067Z,4.15
2023-02-06T21:15:57.664Z,4.50
2023-02-06T21:18:27.966Z,4.88
2023-02-06T21:20:56.250Z,5.87
2023-02-06T21:23:24.465Z,6.18
2023-02-06T21:25:52.894Z,5.82
2023-02-06T21:28:20.245Z,3.67
2023-02-06T21:30:47.857Z,2.90
2023-02-06T21:33:15.072Z,3.23
2023-02-06T21:35:51.912Z,3.95
2023-02-06T21:38:20.049Z,4.97
2023-02-06T21:40:46.891Z,3.78
2023-02-06T21:43:15.242Z,2.00
2023-02-06T21:45:43.226Z,1.63
2023-02-06T21:48:10.083Z,4.00
2023-02-06T21:50:41.280Z,5.50
2023-02-06T21:53:08.972Z,3.95
2023-02-06T21:55:41.968Z,2.67
2023-02-06T21:58:08.998Z,2.50
2023-02-06T22:00:35.654Z,8.75
2023-02-06T22:03:02.501Z,9.23
2023-02-06T22:05:29.225Z,21.58
2023-02-06T22:07:56.786Z,16.98
2023-02-06T22:10:23.317Z,16.00
2023-02-06T22:12:50.028Z,7.90
2023-02-06T22:15:16.726Z,2.60
2023-02-06T22:17:43.180Z,2.10
2023-02-06T22:20:09.984Z,2.28
2023-02-06T22:22:38.680Z,2.73
2023-02-06T22:25:05.833Z,4.72
2023-02-06T22:27:33.014Z,5.10
2023-02-06T22:29:59.530Z,5.32
2023-02-06T22:32:26.059Z,7.75
2023-02-06T22:34:53.936Z,8.00
2023-02-06T22:37:20.471Z,7.45
2023-02-06T22:39:46.991Z,6.38
2023-02-06T22:42:13.510Z,5.22
2023-02-06T22:44:40.048Z,4.75
2023-02-06T22:47:06.552Z,4.20
2023-02-06T22:49:33.046Z,5.38
2023-02-06T22:51:59.588Z,4.55
2023-02-06T22:54:26.181Z,5.13
2023-02-06T22:56:52.655Z,5.38
2023-02-06T22:59:24.735Z,4.97
2023-02-06T23:01:58.567Z,5.75
2023-02-06T23:04:30.125Z,4.68
2023-02-06T23:06:57.116Z,4.93
2023-02-06T23:09:29.392Z,4.20
2023-02-06T23:11:58.387Z,4.10
2023-02-06T23:14:26.239Z,4.00
2023-02-06T23:16:52.801Z,4.07
2023-02-06T23:19:20.673Z,4.03
2023-02-06T23:21:48.920Z,2.88
2023-02-06T23:24:15.989Z,2.27
2023-02-06T23:26:45.718Z,2.47
2023-02-06T23:29:17.762Z,3.05
2023-02-06T23:31:46.084Z,2.22
2023-02-06T23:34:13.994Z,2.00
2023-02-06T23:36:40.548Z,1.77
2023-02-06T23:39:07.049Z,2.53
2023-02-06T23:41:34.275Z,2.50
2023-02-06T23:44:04.273Z,2.85
2023-02-06T23:46:32.418Z,2.67
2023-02-06T23:48:59.048Z,2.73
2023-02-06T23:51:26.193Z,3.20
2023-02-06T23:53:53.135Z,2.72
2023-02-06T23:56:25.545Z,2.35
2023-02-06T23:58:53.682Z,2.80
